Time;durP1;ratioP1;P1;durP2;ratioP2;P2;SDS_P1;SDS_P2;PMS_P1;PMS_P2;Temp;Humidity;BMP_temperature;BMP_pressure;BME280_temperature;BME280_humidity;BME280_pressure;Samples;Min_cycle;Max_cycle;Signal;HPM_P1;HPM_P2
2022/07/15 00:01:42;;;;;;;;;11.50;10.75;;;;;21.05;44.95;101285.94;6308530;22;45380;-61
2022/07/15 00:04:07;;;;;;;;;12.00;8.00;;;;;20.95;45.32;101280.44;6309495;22;45535;-67
2022/07/15 00:06:33;;;;;;;;;9.00;7.25;;;;;20.90;45.42;101281.72;6311962;22;47339;-70
2022/07/15 00:08:58;;;;;;;;;6.50;6.50;;;;;20.82;45.65;101283.13;6282425;22;45264;-70
2022/07/15 00:11:24;;;;;;;;;10.50;7.00;;;;;20.77;45.41;101274.56;6278747;22;45223;-69
2022/07/15 00:13:49;;;;;;;;;10.00;10.00;;;;;20.71;45.68;101270.53;6305428;22;45227;-68
2022/07/15 00:16:14;;;;;;;;;6.50;4.00;;;;;20.73;45.44;101275.75;6305437;22;45376;-68
2022/07/15 00:18:40;;;;;;;;;6.50;6.50;;;;;20.70;45.94;101279.50;6305445;22;45221;-70
2022/07/15 00:21:06;;;;;;;;;10.00;6.25;;;;;20.68;45.38;101278.78;6305380;22;45251;-69
2022/07/15 00:23:32;;;;;;;;;6.00;6.00;;;;;20.63;46.29;101280.03;6306092;22;45752;-63
2022/07/15 00:25:57;;;;;;;;;8.75;6.75;;;;;20.55;45.83;101272.56;6277789;22;46188;-69
2022/07/15 00:28:24;;;;;;;;;6.50;6.50;;;;;20.59;45.89;101295.44;6308523;22;45317;-68
2022/07/15 00:30:49;;;;;;;;;6.25;6.25;;;;;20.41;46.41;101268.22;6306530;22;45333;-69
2022/07/15 00:33:15;;;;;;;;;4.75;4.75;;;;;20.54;45.97;101298.44;6305341;22;45386;-67
2022/07/15 00:35:40;;;;;;;;;10.00;9.50;;;;;20.51;45.89;101293.31;6305404;22;45518;-70
2022/07/15 00:38:09;;;;;;;;;7.50;6.25;;;;;20.51;46.14;101298.66;6306521;22;45209;-68
2022/07/15 00:40:43;;;;;;;;;7.00;7.00;;;;;20.49;46.10;101303.28;6308839;22;45282;-70
2022/07/15 00:43:09;;;;;;;;;9.00;8.00;;;;;20.47;46.59;101302.53;6305540;22;45220;-69
2022/07/15 00:45:35;;;;;;;;;6.25;6.25;;;;;20.43;46.27;101301.88;6304516;22;45420;-70
2022/07/15 00:48:00;;;;;;;;;8.50;7.50;;;;;20.43;46.49;101303.72;6305687;22;45266;-67
2022/07/15 00:50:29;;;;;;;;;7.50;7.50;;;;;20.37;46.56;101304.13;6305277;22;45426;-68
2022/07/15 00:52:59;;;;;;;;;8.50;7.75;;;;;20.34;46.87;101317.72;6305854;22;45160;-69
2022/07/15 00:55:27;;;;;;;;;7.50;6.75;;;;;20.29;46.72;101318.91;6305283;22;46021;-68
2022/07/15 00:57:59;;;;;;;;;6.50;6.50;;;;;20.28;46.82;101322.53;6305101;22;45235;-68
2022/07/15 01:00:25;;;;;;;;;8.25;8.00;;;;;20.23;47.37;101324.66;6277702;22;45256;-68
2022/07/15 01:02:53;;;;;;;;;8.75;8.25;;;;;20.15;47.53;101321.66;6305314;22;45452;-68
2022/07/15 01:05:20;;;;;;;;;8.75;7.50;;;;;20.10;47.50;101310.41;6305860;22;46350;-62
2022/07/15 01:07:46;;;;;;;;;6.75;6.75;;;;;20.05;47.74;101332.13;6308183;22;45123;-68
2022/07/15 01:10:12;;;;;;;;;4.00;4.00;;;;;20.02;47.36;101326.13;6305991;22;45421;-70
2022/07/15 01:12:40;;;;;;;;;6.25;6.25;;;;;19.98;48.03;101325.50;6306391;22;45486;-69
2022/07/15 01:15:06;;;;;;;;;7.75;7.50;;;;;19.97;48.15;101332.63;6306515;22;45347;-71
2022/07/15 01:17:32;;;;;;;;;6.75;4.25;;;;;19.90;48.21;101336.69;6306656;22;45200;-66
2022/07/15 01:19:57;;;;;;;;;9.25;7.00;;;;;19.84;48.45;101329.94;6306467;22;45214;-69
2022/07/15 01:22:23;;;;;;;;;7.25;6.00;;;;;19.77;48.38;101335.75;6304892;22;45497;-69
2022/07/15 01:24:48;;;;;;;;;5.00;5.00;;;;;19.74;48.45;101343.97;6305413;22;45345;-69
2022/07/15 01:27:14;;;;;;;;;8.50;6.00;;;;;19.63;48.40;101342.88;6306737;22;45186;-69
2022/07/15 01:29:39;;;;;;;;;5.25;5.25;;;;;19.53;49.00;101339.97;6310008;22;45107;-68
2022/07/15 01:32:05;;;;;;;;;8.75;6.25;;;;;19.50;48.67;101334.00;6308927;22;45167;-70
2022/07/15 01:34:30;;;;;;;;;6.50;4.75;;;;;19.44;49.22;101334.41;6309746;22;46554;-69
2022/07/15 01:36:57;;;;;;;;;5.00;5.00;;;;;19.32;49.23;101333.38;6308019;22;45129;-68
2022/07/15 01:39:22;;;;;;;;;6.75;4.25;;;;;19.29;49.09;101339.78;6305932;22;45357;-69
2022/07/15 01:41:48;;;;;;;;;4.50;4.50;;;;;19.24;48.82;101340.06;6305359;22;45316;-68
2022/07/15 01:44:16;;;;;;;;;5.00;5.00;;;;;19.20;49.19;101329.72;6305425;22;45540;-70
2022/07/15 01:46:42;;;;;;;;;5.75;4.25;;;;;19.19;49.07;101331.50;6308128;22;45304;-70
2022/07/15 01:49:24;;;;;;;;;6.25;5.50;;;;;19.17;49.35;101337.91;6304912;22;45170;-69
2022/07/15 01:51:50;;;;;;;;;5.25;5.25;;;;;19.11;48.90;101331.16;6305021;22;45344;-69
2022/07/15 01:54:16;;;;;;;;;7.00;5.00;;;;;19.06;49.91;101335.94;6304767;22;45329;-69
2022/07/15 01:56:42;;;;;;;;;3.00;3.00;;;;;18.98;49.51;101325.75;6276914;22;45316;-69
2022/07/15 01:59:08;;;;;;;;;6.75;5.50;;;;;18.95;49.72;101329.44;6305012;22;45244;-68
2022/07/15 02:01:34;;;;;;;;;5.25;5.25;;;;;18.94;49.38;101329.53;6308567;22;45218;-71
2022/07/15 02:03:59;;;;;;;;;4.25;4.25;;;;;18.89;49.49;101326.28;6305582;22;45910;-69
2022/07/15 02:06:25;;;;;;;;;7.25;4.00;;;;;18.86;49.90;101326.50;6305136;22;45166;-71
2022/07/15 02:08:50;;;;;;;;;5.25;5.25;;;;;18.78;49.69;101317.16;6304800;22;45166;-69
2022/07/15 02:11:16;;;;;;;;;5.50;5.00;;;;;18.77;49.37;101319.94;6305002;22;45457;-68
2022/07/15 02:13:41;;;;;;;;;4.50;4.50;;;;;18.74;49.43;101326.31;6304502;22;46025;-68
2022/07/15 02:16:06;;;;;;;;;7.25;5.75;;;;;18.71;49.11;101315.84;6304722;22;45412;-68
2022/07/15 02:18:32;;;;;;;;;5.25;4.25;;;;;18.73;49.01;101318.44;6304854;22;45412;-68
2022/07/15 02:20:57;;;;;;;;;3.75;3.75;;;;;18.69;49.01;101331.94;6305227;22;45452;-68
2022/07/15 02:23:23;;;;;;;;;5.25;4.00;;;;;18.67;48.66;101325.00;6305830;22;45402;-64
2022/07/15 02:25:49;;;;;;;;;4.75;4.75;;;;;18.67;48.71;101322.31;6307183;22;45346;-61
2022/07/15 02:28:15;;;;;;;;;4.00;4.00;;;;;18.65;48.94;101324.22;6306388;22;45463;-69
2022/07/15 02:30:42;;;;;;;;;4.00;4.00;;;;;18.58;49.57;101325.56;6276994;22;45284;-68
2022/07/15 02:33:09;;;;;;;;;4.75;4.75;;;;;18.50;49.09;101326.03;6304536;22;46449;-69
2022/07/15 02:35:35;;;;;;;;;5.25;5.25;;;;;18.45;49.40;101317.47;6276989;22;45305;-68
2022/07/15 02:38:01;;;;;;;;;4.00;4.00;;;;;18.44;49.30;101335.28;6277045;22;45226;-66
2022/07/15 02:40:27;;;;;;;;;5.25;5.00;;;;;18.39;49.64;101334.69;6305948;22;45400;-63
2022/07/15 02:42:56;;;;;;;;;3.50;3.50;;;;;18.36;49.55;101337.56;6276617;22;46140;-63
2022/07/15 02:45:23;;;;;;;;;5.00;5.00;;;;;18.30;49.17;101321.94;6276308;22;45276;-61
2022/07/15 02:47:50;;;;;;;;;4.00;4.00;;;;;18.27;49.49;101328.31;6305668;22;45159;-61
2022/07/15 02:50:16;;;;;;;;;5.50;5.50;;;;;18.28;49.41;101324.69;6279707;22;45237;-68
2022/07/15 02:52:42;;;;;;;;;5.75;4.00;;;;;18.28;49.38;101326.50;6307740;22;46148;-69
2022/07/15 02:55:09;;;;;;;;;4.75;4.75;;;;;18.20;49.67;101322.50;6305319;22;45325;-70
2022/07/15 02:57:34;;;;;;;;;5.00;5.00;;;;;18.18;49.79;101327.06;6304635;22;45291;-69
2022/07/15 03:00:00;;;;;;;;;5.00;3.75;;;;;18.16;49.79;101344.94;6305148;22;45520;-71
2022/07/15 03:02:26;;;;;;;;;5.75;5.25;;;;;18.16;49.56;101331.63;6310495;22;46152;-68
2022/07/15 03:04:52;;;;;;;;;7.50;7.50;;;;;18.16;49.76;101346.75;6303737;22;45440;-69
2022/07/15 03:07:17;;;;;;;;;0.75;0.75;;;;;18.09;49.62;101343.59;6304734;22;45219;-69
2022/07/15 03:09:43;;;;;;;;;4.50;4.50;;;;;18.10;49.80;101350.66;6305656;22;45544;-69
2022/07/15 03:12:08;;;;;;;;;5.00;5.00;;;;;18.01;49.90;101335.19;6306837;22;45192;-69
2022/07/15 03:14:33;;;;;;;;;5.25;5.25;;;;;18.05;49.82;101350.06;6306492;22;45275;-69
2022/07/15 03:16:59;;;;;;;;;6.25;4.75;;;;;18.04;49.77;101354.50;6306122;22;45353;-69
2022/07/15 03:19:24;;;;;;;;;5.25;5.25;;;;;18.06;49.59;101349.13;6305663;22;45416;-69
2022/07/15 03:21:49;;;;;;;;;5.50;5.25;;;;;18.08;49.54;101357.88;6305694;22;45362;-67
2022/07/15 03:24:15;;;;;;;;;4.00;4.00;;;;;18.11;49.37;101360.34;6306749;22;45226;-69
2022/07/15 03:26:41;;;;;;;;;7.25;4.00;;;;;18.10;49.47;101363.97;6307360;22;45275;-68
2022/07/15 03:29:06;;;;;;;;;6.00;4.50;;;;;18.09;49.77;101367.56;6308866;22;45314;-69
2022/07/15 03:31:32;;;;;;;;;4.75;4.75;;;;;17.98;50.29;101348.66;6308786;22;45371;-68
2022/07/15 03:33:57;;;;;;;;;5.75;4.50;;;;;17.96;50.24;101346.09;6308735;22;45175;-68
2022/07/15 03:36:24;;;;;;;;;5.75;4.25;;;;;17.92;50.00;101345.41;6307960;22;45294;-68
2022/07/15 03:38:51;;;;;;;;;7.00;5.50;;;;;17.91;50.07;101348.19;6310037;22;45338;-69
2022/07/15 03:41:18;;;;;;;;;7.00;5.75;;;;;17.70;50.55;101323.69;6307182;22;46387;-62
2022/07/15 03:43:43;;;;;;;;;4.75;3.50;;;;;17.78;50.49;101348.91;6305228;22;45334;-62
2022/07/15 03:46:08;;;;;;;;;6.25;4.75;;;;;17.72;50.60;101343.94;6305550;22;45249;-69
2022/07/15 03:48:34;;;;;;;;;4.50;4.50;;;;;17.73;50.42;101337.66;6305597;22;45549;-68
2022/07/15 03:50:59;;;;;;;;;4.75;4.75;;;;;17.77;50.35;101339.19;6305513;22;45294;-68
2022/07/15 03:53:25;;;;;;;;;7.00;5.50;;;;;17.78;50.47;101338.25;6277406;22;45881;-70
2022/07/15 03:55:50;;;;;;;;;5.00;5.00;;;;;17.78;50.56;101334.72;6305629;22;45291;-69
2022/07/15 03:58:15;;;;;;;;;5.50;4.25;;;;;17.75;50.67;101338.44;6306864;22;45298;-69
2022/07/15 04:00:41;;;;;;;;;7.75;7.00;;;;;17.73;50.93;101337.66;6308885;22;45254;-70
2022/07/15 04:03:06;;;;;;;;;6.50;6.00;;;;;17.73;50.82;101353.63;6307008;22;45109;-69
2022/07/15 04:05:31;;;;;;;;;7.50;7.50;;;;;17.70;51.04;101356.47;6306329;22;45232;-69
2022/07/15 04:07:57;;;;;;;;;7.25;6.50;;;;;17.67;51.01;101360.16;6309105;22;45484;-69
2022/07/15 04:10:22;;;;;;;;;6.75;6.75;;;;;17.62;51.34;101367.53;6308169;22;53484;-69
2022/07/15 04:12:47;;;;;;;;;4.50;4.50;;;;;17.60;51.69;101363.28;6309023;22;45372;-69
2022/07/15 04:15:14;;;;;;;;;7.00;6.50;;;;;17.54;51.31;101358.31;6308762;22;45329;-67
2022/07/15 04:17:41;;;;;;;;;9.25;6.25;;;;;17.52;51.68;101364.56;6309244;22;45310;-68
2022/07/15 04:20:07;;;;;;;;;6.25;6.25;;;;;17.54;51.92;101367.13;6307701;22;45260;-70
2022/07/15 04:22:41;;;;;;;;;6.00;6.00;;;;;17.59;51.89;101374.84;6306997;22;45208;-70
2022/07/15 04:25:11;;;;;;;;;5.75;5.75;;;;;17.59;51.44;101375.69;6306602;22;45139;-66
2022/07/15 04:27:37;;;;;;;;;8.75;7.00;;;;;17.56;51.75;101372.38;6306286;22;45422;-68
2022/07/15 04:30:05;;;;;;;;;9.25;7.50;;;;;17.54;51.70;101364.47;6307776;22;46436;-70
2022/07/15 04:32:31;;;;;;;;;8.25;7.50;;;;;17.54;51.85;101366.28;6308604;22;45290;-69
2022/07/15 04:34:56;;;;;;;;;8.25;7.00;;;;;17.62;51.82;101377.34;6307864;22;45250;-66
2022/07/15 04:37:22;;;;;;;;;7.00;7.00;;;;;17.58;52.10;101366.00;6309847;22;45504;-70
2022/07/15 04:39:47;;;;;;;;;8.25;8.25;;;;;17.54;52.18;101369.78;6308056;22;45970;-68
2022/07/15 04:42:13;;;;;;;;;8.50;7.75;;;;;17.51;52.31;101365.53;6278276;22;45102;-69
2022/07/15 04:44:38;;;;;;;;;8.25;8.25;;;;;17.53;52.41;101381.38;6305363;22;45223;-69
2022/07/15 04:47:04;;;;;;;;;6.50;6.50;;;;;17.47;52.38;101361.28;6307971;22;45092;-69
2022/07/15 04:52:13;;;;;;;;;9.75;7.25;;;;;17.51;52.48;101380.59;6305371;22;45184;-68
2022/07/15 04:54:39;;;;;;;;;6.25;6.25;;;;;17.52;52.64;101384.97;6304780;22;45342;-71
2022/07/15 04:57:04;;;;;;;;;7.75;7.75;;;;;17.51;52.97;101383.25;6305373;22;45212;-69
2022/07/15 04:59:30;;;;;;;;;8.50;7.50;;;;;17.54;52.68;101383.09;6304898;22;46004;-69
2022/07/15 05:01:55;;;;;;;;;7.00;7.00;;;;;17.55;52.45;101387.47;6305170;22;45756;-68
2022/07/15 05:04:21;;;;;;;;;6.25;6.25;;;;;17.57;52.54;101390.06;6304174;22;45448;-70
2022/07/15 05:06:47;;;;;;;;;8.50;6.50;;;;;17.54;52.82;101392.88;6304933;22;45466;-70
2022/07/15 05:09:12;;;;;;;;;14.50;9.00;;;;;17.64;53.13;101391.41;6304549;22;45576;-68
2022/07/15 05:11:38;;;;;;;;;8.00;8.00;;;;;17.81;52.89;101388.63;6305030;22;45276;-67
2022/07/15 05:14:03;;;;;;;;;11.00;8.00;;;;;18.23;51.92;101391.56;6304160;22;45246;-70
2022/07/15 05:16:29;;;;;;;;;5.75;5.25;;;;;18.59;51.25;101391.22;6304496;22;45488;-68
2022/07/15 05:18:55;;;;;;;;;7.25;7.25;;;;;18.92;50.92;101393.63;6276458;22;46073;-67
2022/07/15 05:21:20;;;;;;;;;7.25;7.25;;;;;19.27;49.94;101400.38;6275660;22;46807;-62
2022/07/15 05:23:45;;;;;;;;;7.75;7.75;;;;;19.55;49.66;101399.41;6304371;22;45304;-63
2022/07/15 05:26:11;;;;;;;;;6.75;6.75;;;;;19.76;48.79;101401.66;6305128;22;45180;-62
2022/07/15 05:28:39;;;;;;;;;6.25;6.25;;;;;19.99;48.72;101399.28;6305648;22;45298;-67
2022/07/15 05:31:05;;;;;;;;;8.00;8.00;;;;;20.18;48.09;101414.06;6303966;22;45280;-69
2022/07/15 05:33:30;;;;;;;;;8.50;5.25;;;;;20.21;48.01;101409.41;6305192;22;45126;-61
2022/07/15 05:35:55;;;;;;;;;6.50;6.50;;;;;20.27;47.51;101413.44;6304248;22;45471;-60
2022/07/15 05:38:21;;;;;;;;;6.75;6.75;;;;;20.40;48.02;101413.47;6305198;22;45999;-69
2022/07/15 05:40:46;;;;;;;;;9.75;7.75;;;;;20.49;47.20;101426.19;6306214;22;45212;-62
2022/07/15 05:43:11;;;;;;;;;7.25;7.25;;;;;20.48;47.06;101423.63;6304661;22;45339;-61
2022/07/15 05:45:37;;;;;;;;;7.50;7.50;;;;;20.48;47.38;101421.81;6304751;22;45309;-65
2022/07/15 05:48:02;;;;;;;;;7.75;7.75;;;;;20.38;47.43;101431.44;6303737;22;45320;-61
2022/07/15 05:50:28;;;;;;;;;8.00;7.75;;;;;20.26;48.05;101425.97;6303981;22;45272;-62
2022/07/15 05:52:53;;;;;;;;;6.50;6.50;;;;;20.17;48.03;101429.25;6304807;22;45323;-62
2022/07/15 05:55:20;;;;;;;;;7.50;7.50;;;;;20.20;48.21;101426.38;6306997;22;45442;-64
2022/07/15 05:57:45;;;;;;;;;9.25;9.25;;;;;20.18;47.91;101425.63;6309226;22;45236;-63
2022/07/15 06:00:12;;;;;;;;;9.25;8.25;;;;;19.95;48.71;101424.50;6303671;22;45310;-61
2022/07/15 06:02:37;;;;;;;;;10.25;8.75;;;;;19.85;48.52;101433.09;6304172;22;45283;-61
2022/07/15 06:05:03;;;;;;;;;11.50;9.50;;;;;19.75;49.20;101433.78;6275607;22;45612;-65
2022/07/15 06:07:28;;;;;;;;;9.00;9.00;;;;;19.54;50.12;101435.06;6304646;22;46085;-62
2022/07/15 06:09:53;;;;;;;;;8.25;6.75;;;;;19.34;49.91;101428.38;6304924;22;45219;-62
2022/07/15 06:12:19;;;;;;;;;7.00;5.75;;;;;19.18;50.06;101425.81;6276760;22;45182;-60
2022/07/15 06:14:44;;;;;;;;;8.25;7.75;;;;;19.09;50.15;101437.94;6306660;22;45417;-62
2022/07/15 06:17:10;;;;;;;;;19.25;15.75;;;;;18.98;50.93;101427.91;6304903;22;45982;-66
2022/07/15 06:19:36;;;;;;;;;9.25;9.25;;;;;18.94;51.10;101431.69;6308219;22;44594;-61
2022/07/15 06:22:01;;;;;;;;;11.00;8.00;;;;;18.84;50.87;101417.22;6308212;22;45216;-62
2022/07/15 06:24:27;;;;;;;;;10.25;8.00;;;;;18.75;51.69;101421.31;6305984;22;45404;-63
2022/07/15 06:26:53;;;;;;;;;9.75;8.00;;;;;18.66;51.75;101432.53;6303619;22;45219;-67
2022/07/15 06:29:19;;;;;;;;;9.75;8.00;;;;;18.64;51.45;101442.44;6307819;22;45156;-68
2022/07/15 06:31:44;;;;;;;;;7.75;7.75;;;;;18.61;51.74;101429.28;6303766;22;45258;-66
2022/07/15 06:34:10;;;;;;;;;10.00;10.00;;;;;18.69;51.55;101435.88;6304106;22;45396;-69
2022/07/15 06:36:35;;;;;;;;;8.75;8.75;;;;;18.74;51.55;101440.06;6303483;22;45500;-68
2022/07/15 06:39:01;;;;;;;;;8.25;7.75;;;;;18.76;51.51;101444.34;6304533;22;45368;-69
2022/07/15 06:41:26;;;;;;;;;9.75;9.75;;;;;18.81;51.57;101439.59;6304970;22;45339;-69
2022/07/15 06:43:52;;;;;;;;;11.25;10.50;;;;;18.84;51.44;101439.41;6278724;22;45200;-69
2022/07/15 06:46:17;;;;;;;;;9.00;9.00;;;;;18.89;51.09;101447.13;6276186;22;46256;-69
2022/07/15 06:48:43;;;;;;;;;8.50;8.50;;;;;18.90;51.18;101447.97;6303689;22;45154;-69
2022/07/15 06:51:08;;;;;;;;;9.00;9.00;;;;;18.76;51.18;101419.50;6303313;22;45255;-69
2022/07/15 06:53:34;;;;;;;;;10.00;10.00;;;;;18.96;50.93;101443.13;6275722;22;45185;-65
2022/07/15 06:55:59;;;;;;;;;13.50;13.50;;;;;18.97;50.73;101449.31;6303121;22;45261;-69
2022/07/15 06:58:25;;;;;;;;;8.75;8.00;;;;;18.96;50.44;101443.13;6303920;22;45179;-66
2022/07/15 07:00:50;;;;;;;;;8.00;8.00;;;;;19.03;50.72;101440.94;6304515;22;45302;-69
2022/07/15 07:03:15;;;;;;;;;7.25;7.25;;;;;19.14;49.92;101448.28;6303047;22;45231;-70
2022/07/15 07:05:40;;;;;;;;;8.75;8.75;;;;;19.24;49.43;101445.91;6274506;22;46221;-70
2022/07/15 07:08:06;;;;;;;;;7.00;5.00;;;;;19.28;49.11;101458.09;6303548;22;45263;-67
2022/07/15 07:10:32;;;;;;;;;6.50;6.50;;;;;19.33;48.73;101460.44;6303817;22;45339;-67
2022/07/15 07:12:58;;;;;;;;;8.50;8.50;;;;;19.18;48.68;101424.97;6303849;22;45237;-67
2022/07/15 07:15:23;;;;;;;;;9.25;6.50;;;;;19.42;48.86;101447.41;6301825;22;46900;-69
2022/07/15 07:17:51;;;;;;;;;11.25;8.00;;;;;19.47;48.97;101454.25;6303511;22;45259;-68
2022/07/15 07:20:16;;;;;;;;;7.25;7.25;;;;;19.56;48.27;101451.81;6303090;22;45302;-63
2022/07/15 07:22:41;;;;;;;;;7.50;7.50;;;;;19.60;48.14;101449.84;6303498;22;45322;-65
2022/07/15 07:25:07;;;;;;;;;5.25;5.25;;;;;19.64;48.08;101446.00;6302902;22;46179;-60
2022/07/15 07:27:33;;;;;;;;;8.75;6.50;;;;;19.62;48.54;101447.09;6304092;22;45166;-64
2022/07/15 07:30:01;;;;;;;;;11.00;9.50;;;;;19.68;48.26;101446.69;6303843;22;45307;-66
2022/07/15 07:32:27;;;;;;;;;7.75;7.75;;;;;19.74;47.76;101446.28;6302927;22;45355;-64
2022/07/15 07:34:52;;;;;;;;;10.75;8.50;;;;;19.88;48.02;101442.69;6302247;22;46010;-62
2022/07/15 07:37:17;;;;;;;;;10.50;5.75;;;;;19.97;47.56;101438.59;6302920;22;45456;-63
2022/07/15 07:39:43;;;;;;;;;5.50;5.50;;;;;20.09;46.60;101448.47;6303241;22;45485;-63
2022/07/15 07:42:09;;;;;;;;;6.75;5.25;;;;;20.24;46.56;101445.72;6303450;22;45465;-67
2022/07/15 07:44:34;;;;;;;;;7.25;6.00;;;;;20.38;45.69;101442.13;6303435;22;45920;-71
2022/07/15 07:47:00;;;;;;;;;5.75;5.50;;;;;20.44;45.50;101439.84;6303461;22;45402;-69
2022/07/15 07:49:26;;;;;;;;;6.25;4.50;;;;;20.59;45.83;101445.09;6302863;22;45412;-72
2022/07/15 07:51:52;;;;;;;;;4.25;4.25;;;;;20.61;44.34;101443.19;6303463;22;45587;-68
2022/07/15 07:54:17;;;;;;;;;6.00;4.25;;;;;20.60;44.04;101430.78;6304429;22;46848;-67
2022/07/15 07:56:45;;;;;;;;;4.75;4.00;;;;;20.69;44.14;101440.00;6304080;22;45094;-62
2022/07/15 07:59:10;;;;;;;;;4.25;4.25;;;;;20.70;43.35;101428.34;6304423;22;45210;-61
2022/07/15 08:01:36;;;;;;;;;4.50;4.50;;;;;20.86;43.44;101436.19;6304551;22;45416;-61
2022/07/15 08:04:01;;;;;;;;;6.00;6.00;;;;;20.94;43.72;101433.81;6302905;22;46724;-62
2022/07/15 08:06:26;;;;;;;;;6.25;6.00;;;;;20.98;43.85;101427.28;6303496;22;45108;-61
2022/07/15 08:08:52;;;;;;;;;4.75;4.75;;;;;21.08;43.75;101430.16;6307580;22;45366;-62
2022/07/15 08:11:19;;;;;;;;;7.50;6.25;;;;;21.17;43.46;101432.16;6306225;22;45334;-60
2022/07/15 08:13:45;;;;;;;;;7.00;5.50;;;;;21.27;43.15;101418.16;6306247;22;47325;-61
2022/07/15 08:16:10;;;;;;;;;4.50;4.50;;;;;21.33;42.72;101425.72;6303716;22;45218;-62
2022/07/15 08:18:36;;;;;;;;;4.50;4.50;;;;;21.34;42.71;101429.25;6304135;22;45245;-61
2022/07/15 08:21:03;;;;;;;;;6.00;4.00;;;;;21.40;42.96;101423.44;6250656;22;45470;-62
2022/07/15 08:23:31;;;;;;;;;7.50;5.00;;;;;21.54;42.69;101425.97;6303377;22;45393;-70
2022/07/15 08:25:56;;;;;;;;;8.75;6.00;;;;;21.57;42.64;101414.19;6276826;22;45236;-63
2022/07/15 08:28:22;;;;;;;;;4.00;4.00;;;;;21.65;42.04;101421.66;6307858;22;45728;-63
2022/07/15 08:30:47;;;;;;;;;3.50;3.50;;;;;21.71;42.01;101419.41;6307239;22;45227;-66
2022/07/15 08:33:13;;;;;;;;;5.00;5.00;;;;;21.82;41.62;101426.66;6304362;22;46071;-68
2022/07/15 08:35:40;;;;;;;;;8.50;7.00;;;;;21.89;41.06;101424.34;6304768;22;45526;-64
2022/07/15 08:38:07;;;;;;;;;7.75;6.00;;;;;22.01;40.80;101433.28;6304089;22;45230;-71
2022/07/15 08:40:33;;;;;;;;;5.00;5.00;;;;;21.99;40.01;101432.56;6304715;22;45462;-68
2022/07/15 08:42:58;;;;;;;;;4.75;4.75;;;;;22.01;40.57;101433.28;6303639;22;45155;-69
2022/07/15 08:45:24;;;;;;;;;9.25;6.25;;;;;22.06;40.30;101436.47;6304099;22;45301;-67
2022/07/15 08:47:51;;;;;;;;;9.00;9.00;;;;;22.00;40.41;101415.50;6303932;22;45155;-65
2022/07/15 08:50:17;;;;;;;;;8.00;6.75;;;;;22.10;40.39;101426.38;6304240;22;45275;-66
2022/07/15 08:52:45;;;;;;;;;4.00;4.00;;;;;22.15;39.56;101418.84;6304397;22;45255;-69
2022/07/15 08:55:15;;;;;;;;;3.75;3.75;;;;;22.17;39.84;101419.56;6304133;22;45223;-65
2022/07/15 08:57:45;;;;;;;;;7.00;4.00;;;;;22.20;39.31;101416.66;6304027;22;45197;-64
2022/07/15 09:00:11;;;;;;;;;7.50;6.00;;;;;22.30;39.28;101417.69;6278146;22;45355;-62
2022/07/15 09:02:40;;;;;;;;;4.50;4.50;;;;;22.40;38.30;101412.44;6303967;22;46986;-62
2022/07/15 09:05:16;;;;;;;;;7.50;7.50;;;;;22.33;37.28;101411.22;6302592;22;45199;-68
2022/07/15 09:08:07;;;;;;;;;3.50;3.50;;;;;22.36;37.93;101407.47;6304042;22;45101;-69
2022/07/15 09:10:52;;;;;;;;;7.50;6.00;;;;;22.51;38.18;101414.34;6303749;22;45232;-67
2022/07/15 09:13:40;;;;;;;;;5.00;5.00;;;;;22.59;37.33;101406.56;6303867;22;45274;-69
2022/07/15 09:16:13;;;;;;;;;4.00;4.00;;;;;22.63;37.02;101399.09;6303365;22;45266;-70
2022/07/15 09:18:44;;;;;;;;;3.00;3.00;;;;;22.70;36.97;101411.06;6303700;22;45280;-65
2022/07/15 09:21:19;;;;;;;;;2.00;2.00;;;;;22.77;37.23;101406.06;6304011;22;45251;-69
2022/07/15 09:23:45;;;;;;;;;2.00;2.00;;;;;22.77;37.08;101406.91;6304132;22;45359;-67
2022/07/15 09:26:32;;;;;;;;;5.50;3.00;;;;;22.85;36.81;101400.94;6305909;22;45201;-68
2022/07/15 09:28:59;;;;;;;;;5.00;3.00;;;;;22.95;36.61;101413.63;6308020;22;45273;-69
2022/07/15 09:34:17;;;;;;;;;0.00;0.00;;;;;23.16;35.00;101409.22;6303805;22;45406;-66
2022/07/15 09:36:53;;;;;;;;;2.75;2.00;;;;;23.18;35.47;101391.16;6304223;22;45312;-67
2022/07/15 09:39:20;;;;;;;;;4.75;4.75;;;;;23.30;34.15;101400.09;6305450;22;45323;-65
2022/07/15 09:41:47;;;;;;;;;1.00;1.00;;;;;23.12;33.87;101372.88;6306174;22;45462;-69
2022/07/15 09:44:20;;;;;;;;;3.00;1.25;;;;;23.31;34.12;101396.44;6304244;22;45938;-66
2022/07/15 09:46:59;;;;;;;;;1.00;1.00;;;;;23.38;33.85;101396.78;6305143;22;45251;-63
2022/07/15 09:49:24;;;;;;;;;1.25;1.25;;;;;23.37;33.85;101395.09;6304662;22;45211;-65
2022/07/15 09:51:55;;;;;;;;;1.00;1.00;;;;;23.44;33.29;101393.59;6276772;22;45396;-62
2022/07/15 09:54:28;;;;;;;;;2.50;2.50;;;;;23.30;33.69;101353.59;6277649;22;48344;-64
2022/07/15 09:56:53;;;;;;;;;1.00;1.00;;;;;23.47;33.55;101371.88;6303859;22;45188;-64
2022/07/15 09:59:19;;;;;;;;;5.00;4.00;;;;;23.75;32.68;101395.53;6309229;22;45193;-62
2022/07/15 10:01:49;;;;;;;;;5.25;5.00;;;;;23.85;32.93;101401.00;6307296;22;45397;-66
2022/07/15 10:04:16;;;;;;;;;1.00;1.00;;;;;23.93;31.86;101396.72;6304897;22;46218;-65
2022/07/15 10:06:42;;;;;;;;;1.00;1.00;;;;;24.00;31.86;101391.69;6278281;22;45342;-64
2022/07/15 10:09:09;;;;;;;;;2.75;2.75;;;;;24.05;31.60;101400.22;6305136;22;45249;-67
2022/07/15 10:11:41;;;;;;;;;1.50;0.25;;;;;24.14;30.98;101390.53;6278016;22;45275;-65
2022/07/15 10:14:31;;;;;;;;;4.25;2.25;;;;;24.24;30.26;101395.13;6304094;22;45395;-64
2022/07/15 10:17:07;;;;;;;;;8.50;7.00;;;;;24.33;30.88;101395.16;6304687;22;45189;-63
2022/07/15 10:19:44;;;;;;;;;1.00;1.00;;;;;24.38;30.12;101396.59;6304610;22;45334;-61
2022/07/15 10:22:28;;;;;;;;;2.00;2.00;;;;;24.34;29.83;101386.09;6304380;22;45246;-63
2022/07/15 10:25:05;;;;;;;;;6.75;6.75;;;;;24.45;30.18;101395.09;6275892;22;47673;-64
2022/07/15 10:27:31;;;;;;;;;2.25;1.00;;;;;24.51;29.85;101383.81;6304474;22;45349;-66
2022/07/15 10:30:02;;;;;;;;;1.00;1.00;;;;;24.54;29.82;101382.69;6304449;22;45842;-68
2022/07/15 10:32:27;;;;;;;;;3.00;1.25;;;;;24.51;30.05;101373.91;6307183;22;45345;-66
2022/07/15 10:34:52;;;;;;;;;2.00;2.00;;;;;24.55;30.42;101373.63;6306158;22;45323;-66
2022/07/15 10:37:18;;;;;;;;;3.25;3.25;;;;;24.65;29.74;101380.75;6276397;22;46538;-66
2022/07/15 10:39:48;;;;;;;;;1.25;1.25;;;;;24.57;29.52;101368.97;6310305;22;45229;-66
2022/07/15 10:42:13;;;;;;;;;4.75;3.75;;;;;24.54;29.81;101372.78;6308062;22;45244;-62
2022/07/15 10:45:06;;;;;;;;;3.25;3.25;;;;;24.64;30.09;101360.25;6303882;22;46066;-66
2022/07/15 10:47:32;;;;;;;;;1.75;1.75;;;;;24.74;29.78;101371.06;6267212;22;45276;-69
2022/07/15 10:49:58;;;;;;;;;1.00;1.00;;;;;24.73;29.26;101355.03;6304106;22;45255;-69
2022/07/15 10:52:29;;;;;;;;;2.00;2.00;;;;;24.72;29.51;101362.22;6304591;22;45156;-65
2022/07/15 10:54:54;;;;;;;;;1.25;1.25;;;;;24.76;29.75;101362.84;6303343;22;47143;-62
2022/07/15 10:57:46;;;;;;;;;7.75;7.75;;;;;24.82;28.93;101356.94;6304339;22;45388;-70
2022/07/15 11:00:21;;;;;;;;;2.00;2.00;;;;;24.96;29.50;101355.72;6304405;22;45285;-69
2022/07/15 11:03:09;;;;;;;;;3.75;3.00;;;;;25.05;29.15;101351.31;6274855;22;45336;-66
2022/07/15 11:05:59;;;;;;;;;6.25;5.25;;;;;25.09;28.97;101337.47;6302310;22;45280;-66
2022/07/15 11:08:34;;;;;;;;;3.00;2.00;;;;;25.19;28.86;101342.84;6303148;22;45309;-64
2022/07/15 11:11:14;;;;;;;;;2.00;2.00;;;;;25.26;28.62;101348.53;6304457;22;45114;-65
2022/07/15 11:13:45;;;;;;;;;0.00;0.00;;;;;25.33;28.15;101348.81;6306531;22;45240;-64
2022/07/15 11:16:20;;;;;;;;;0.00;0.00;;;;;25.36;27.80;101341.31;6304356;22;45335;-67
2022/07/15 11:18:46;;;;;;;;;3.75;3.75;;;;;25.42;27.74;101345.28;6304095;22;45178;-63
2022/07/15 11:21:12;;;;;;;;;2.00;2.00;;;;;25.51;28.16;101344.50;6305557;22;45337;-61
2022/07/15 11:23:38;;;;;;;;;4.75;4.75;;;;;25.50;28.11;101337.41;6304706;22;45477;-65
2022/07/15 11:26:03;;;;;;;;;1.00;1.00;;;;;25.52;27.86;101340.81;6304459;22;45369;-65
2022/07/15 11:28:29;;;;;;;;;3.50;3.25;;;;;25.55;27.75;101344.22;6305074;22;45263;-64
2022/07/15 11:30:55;;;;;;;;;1.00;1.00;;;;;25.58;27.34;101333.97;6306148;22;45244;-64